Time,TemperatureF,DewpointF,PressureIn,WindDirection,WindDirectionDegrees,WindSpeedMPH,WindSpeedGustMPH,Humidity,HourlyPrecipIn,Conditions,Clouds,dailyrainin,SoftwareType,DateUTC
2013-02-16 00:05:00,31.3,23.0,29.88,WNW,300,0.0,0.0,71,0.00,RA,BKN,0.00,WeatherDisplay:10.37,2013-02-16 05:05:00,
2013-02-16 00:14:00,31.3,23.0,29.88,WNW,300,0.0,0.0,71,0.00,CLR,BKN,0.00,WeatherDisplay:10.37,2013-02-16 05:14:00,
2013-02-16 00:19:00,31.3,23.0,29.88,WNW,300,0.0,0.0,71,0.00,CLR,BKN,0.00,WeatherDisplay:10.37,2013-02-16 05:19:00,
2013-02-16 00:24:00,31.3,23.0,29.88,WNW,300,0.0,0.0,71,0.00,CLR,BKN,0.00,WeatherDisplay:10.37,2013-02-16 05:24:00,
2013-02-16 00:29:00,31.3,23.0,29.88,WNW,300,0.0,0.0,71,0.00,CLR,BKN,0.00,WeatherDisplay:10.37,2013-02-16 05:29:00,
2013-02-16 00:34:00,31.3,23.0,29.88,WNW,300,0.0,0.0,71,0.00,CLR,BKN,0.00,WeatherDisplay:10.37,2013-02-16 05:34:00,
2013-02-16 00:39:00,31.3,23.0,29.88,WNW,300,0.0,0.0,71,0.00,CLR,BKN,0.00,WeatherDisplay:10.37,2013-02-16 05:39:00,
2013-02-16 00:44:00,31.3,23.0,29.88,WNW,300,0.0,0.0,71,0.00,CLR,BKN,0.00,WeatherDisplay:10.37,2013-02-16 05:44:00,
2013-02-16 00:49:00,31.3,23.0,29.88,WNW,300,0.0,0.0,71,0.00,CLR,BKN,0.00,WeatherDisplay:10.37,2013-02-16 05:49:00,
2013-02-16 00:59:00,32.2,22.8,29.91,West,275,1.0,3.0,68,0.00,CLR,BKN,0.00,WeatherDisplay:10.37,2013-02-16 05:59:00,
2013-02-16 01:05:00,32.2,22.8,29.91,NW,304,2.0,2.0,68,0.00,CLR,BKN,0.00,WeatherDisplay:10.37,2013-02-16 06:05:00,
2013-02-16 01:10:00,32.2,22.8,29.91,NW,307,1.0,2.0,68,0.00,CLR,BKN,0.00,WeatherDisplay:10.37,2013-02-16 06:10:00,
2013-02-16 01:15:00,32.4,22.6,29.91,WNW,300,2.0,6.0,67,0.00,CLR,BKN,0.00,WeatherDisplay:10.37,2013-02-16 06:15:00,
2013-02-16 01:20:00,32.4,23.3,29.91,NW,310,2.0,3.0,69,0.00,CLR,BKN,0.00,WeatherDisplay:10.37,2013-02-16 06:20:00,
2013-02-16 01:30:00,32.0,24.0,29.91,WNW,293,5.0,7.0,72,0.00,CLR,BKN,0.00,WeatherDisplay:10.37,2013-02-16 06:30:00,
2013-02-16 01:35:00,32.0,24.3,29.91,NW,304,5.0,7.0,73,0.00,CLR,BKN,0.00,WeatherDisplay:10.37,2013-02-16 06:35:00,
2013-02-16 01:40:00,31.6,24.0,29.91,NW,304,5.0,5.0,73,0.00,CLR,BKN,0.00,WeatherDisplay:10.37,2013-02-16 06:40:00,
2013-02-16 01:45:00,31.5,24.4,29.91,NW,311,5.0,5.0,75,0.00,CLR,BKN,0.00,WeatherDisplay:10.37,2013-02-16 06:45:00,
2013-02-16 01:55:00,31.3,24.3,29.91,WNW,297,3.0,8.0,75,0.00,CLR,BKN,0.00,WeatherDisplay:10.37,2013-02-16 06:55:00,
2013-02-16 02:00:00,31.1,24.7,29.91,WNW,294,5.0,5.0,77,0.00,CLR,BKN,0.00,WeatherDisplay:10.37,2013-02-16 07:00:00,
2013-02-16 02:05:00,31.1,24.7,29.91,WNW,285,5.0,5.0,77,0.00,CLR,BKN,0.00,WeatherDisplay:10.37,2013-02-16 07:05:00,
2013-02-16 02:15:00,30.4,24.9,29.91,WNW,291,3.0,3.0,80,0.00,CLR,BKN,0.00,WeatherDisplay:10.37,2013-02-16 07:15:00,
2013-02-16 02:25:00,30.0,25.2,29.91,WNW,295,2.0,2.0,82,0.00,CLR,BKN,0.00,WeatherDisplay:10.37,2013-02-16 07:25:00,
2013-02-16 02:30:00,29.8,25.0,29.91,WNW,291,2.0,3.0,82,0.00,CLR,BKN,0.00,WeatherDisplay:10.37,2013-02-16 07:30:00,
2013-02-16 02:35:00,29.7,25.1,29.91,WNW,288,1.0,1.0,83,0.00,CLR,BKN,0.00,WeatherDisplay:10.37,2013-02-16 07:35:00,
2013-02-16 02:40:00,29.7,25.1,29.91,WNW,285,2.0,2.0,83,0.00,CLR,BKN,0.00,WeatherDisplay:10.37,2013-02-16 07:40:00,
2013-02-16 02:45:00,29.7,24.8,29.91,WNW,288,0.0,0.0,82,0.00,CLR,BKN,0.00,WeatherDisplay:10.37,2013-02-16 07:45:00,
2013-02-16 02:50:00,29.5,25.5,29.91,WNW,301,0.0,0.0,85,0.00,CLR,BKN,0.00,WeatherDisplay:10.37,2013-02-16 07:50:00,
2013-02-16 03:00:00,29.3,25.9,29.91,NW,311,0.0,3.0,87,0.00,CLR,BKN,0.00,WeatherDisplay:10.37,2013-02-16 08:00:00,
2013-02-16 03:04:00,29.1,25.5,29.91,WNW,302,0.0,3.0,86,0.00,CLR,BKN,0.00,WeatherDisplay:10.37,2013-02-16 08:04:00,
2013-02-16 03:09:00,29.1,25.5,29.91,WNW,292,0.0,0.0,86,0.00,CLR,BKN,0.00,WeatherDisplay:10.37,2013-02-16 08:09:00,
2013-02-16 03:14:00,29.1,25.5,29.91,West,279,0.0,0.0,86,0.00,CLR,BKN,0.00,WeatherDisplay:10.37,2013-02-16 08:14:00,
2013-02-16 03:19:00,28.9,25.3,29.91,West,281,0.0,0.0,86,0.00,CLR,BKN,0.00,WeatherDisplay:10.37,2013-02-16 08:19:00,
2013-02-16 03:24:00,28.9,25.6,29.91,WNW,290,0.0,0.0,87,0.00,CLR,BKN,0.00,WeatherDisplay:10.37,2013-02-16 08:24:00,
2013-02-16 03:34:00,28.9,25.8,29.91,NW,312,0.0,0.0,88,0.00,CLR,BKN,0.00,WeatherDisplay:10.37,2013-02-16 08:34:00,
2013-02-16 03:39:00,28.9,25.8,29.91,NW,315,0.0,0.0,88,0.00,CLR,BKN,0.00,WeatherDisplay:10.37,2013-02-16 08:39:00,
2013-02-16 03:44:00,28.9,25.8,29.91,NW,315,0.0,0.0,88,0.00,CLR,BKN,0.00,WeatherDisplay:10.37,2013-02-16 08:44:00,
2013-02-16 03:49:00,28.9,25.8,29.91,NW,315,0.0,0.0,88,0.00,CLR,BKN,0.00,WeatherDisplay:10.37,2013-02-16 08:49:00,
2013-02-16 03:59:00,28.9,25.8,29.88,NW,322,0.0,0.0,88,0.00,CLR,BKN,0.00,WeatherDisplay:10.37,2013-02-16 08:59:00,
2013-02-16 04:09:00,28.9,25.8,29.88,NW,325,0.0,0.0,88,0.00,CLR,BKN,0.00,WeatherDisplay:10.37,2013-02-16 09:09:00,
2013-02-16 04:19:00,28.9,25.8,29.88,NW,325,0.0,0.0,88,0.00,CLR,BKN,0.00,WeatherDisplay:10.37,2013-02-16 09:19:00,
2013-02-16 04:24:00,28.9,25.8,29.88,NW,325,0.0,0.0,88,0.00,CLR,BKN,0.00,WeatherDisplay:10.37,2013-02-16 09:24:00,
2013-02-16 04:34:00,28.8,25.4,29.88,NW,325,0.0,0.0,87,0.00,CLR,BKN,0.00,WeatherDisplay:10.37,2013-02-16 09:34:00,
2013-02-16 04:39:00,28.8,25.7,29.88,NW,325,0.0,0.0,88,0.00,CLR,BKN,0.00,WeatherDisplay:10.37,2013-02-16 09:39:00,
2013-02-16 04:44:00,28.8,25.4,29.88,NNW,329,0.0,0.0,87,0.00,CLR,BKN,0.00,WeatherDisplay:10.37,2013-02-16 09:44:00,
2013-02-16 04:49:00,28.8,25.7,29.88,NNW,335,0.0,0.0,88,0.00,CLR,BKN,0.00,WeatherDisplay:10.37,2013-02-16 09:49:00,
2013-02-16 04:59:00,28.6,25.5,29.91,WNW,297,0.0,0.0,88,0.00,CLR,BKN,0.00,WeatherDisplay:10.37,2013-02-16 09:59:00,
2013-02-16 05:04:00,28.6,25.5,29.91,WNW,289,0.0,0.0,88,0.00,CLR,BKN,0.00,WeatherDisplay:10.37,2013-02-16 10:04:00,
2013-02-16 05:09:00,28.6,25.5,29.91,WNW,292,0.0,0.0,88,0.00,CLR,BKN,0.00,WeatherDisplay:10.37,2013-02-16 10:09:00,
2013-02-16 05:14:00,28.4,25.3,29.91,WNW,295,0.0,0.0,88,0.00,CLR,BKN,0.00,WeatherDisplay:10.37,2013-02-16 10:14:00,
2013-02-16 05:24:00,28.4,25.3,29.88,WNW,295,0.0,0.0,88,0.00,CLR,BKN,0.00,WeatherDisplay:10.37,2013-02-16 10:24:00,
2013-02-16 05:34:00,28.2,25.4,29.88,WNW,291,0.0,0.0,89,0.00,CLR,BKN,0.00,WeatherDisplay:10.37,2013-02-16 10:34:00,
2013-02-16 05:39:00,28.2,25.4,29.88,WNW,292,0.0,0.0,89,0.00,CLR,BKN,0.00,WeatherDisplay:10.37,2013-02-16 10:39:00,
2013-02-16 05:49:00,28.2,25.4,29.88,NNW,343,0.0,0.0,89,0.00,CLR,BKN,0.00,WeatherDisplay:10.37,2013-02-16 10:49:00,
2013-02-16 05:59:00,28.0,25.2,29.88,North,355,0.0,0.0,89,0.00,CLR,BKN,0.00,WeatherDisplay:10.37,2013-02-16 10:59:00,
2013-02-16 06:04:00,28.0,25.2,29.88,North,357,0.0,0.0,89,0.00,CLR,BKN,0.00,WeatherDisplay:10.37,2013-02-16 11:04:00,
2013-02-16 06:14:00,27.9,25.0,29.88,NNW,335,0.0,0.0,89,0.00,CLR,BKN,0.00,WeatherDisplay:10.37,2013-02-16 11:14:00,
2013-02-16 06:19:00,27.9,24.8,29.88,NNW,330,0.0,0.0,88,0.00,CLR,BKN,0.00,WeatherDisplay:10.37,2013-02-16 11:19:00,
2013-02-16 06:24:00,27.9,24.8,29.88,NNW,331,0.0,0.0,88,0.00,CLR,BKN,0.00,WeatherDisplay:10.37,2013-02-16 11:24:00,
2013-02-16 06:34:00,27.5,24.4,29.88,NNW,330,0.0,0.0,88,0.00,CLR,BKN,0.00,WeatherDisplay:10.37,2013-02-16 11:34:00,
2013-02-16 06:39:00,27.5,24.4,29.88,NNW,330,0.0,0.0,88,0.00,CLR,BKN,0.00,WeatherDisplay:10.37,2013-02-16 11:39:00,
2013-02-16 06:44:00,27.5,24.4,29.88,NNW,330,0.0,0.0,88,0.00,CLR,BKN,0.00,WeatherDisplay:10.37,2013-02-16 11:44:00,
2013-02-16 06:54:00,27.5,24.4,29.88,NNW,330,0.0,0.0,88,0.00,CLR,BKN,0.00,WeatherDisplay:10.37,2013-02-16 11:54:00,
2013-02-16 06:59:00,27.7,24.6,29.88,NNW,330,0.0,0.0,88,0.00,CLR,BKN,0.00,WeatherDisplay:10.37,2013-02-16 11:59:00,
2013-02-16 07:03:00,28.2,16.1,29.79,NW,305,2.0,3.0,60,0.00,RA,BKN,0.04,WeatherDisplay:10.37,2013-02-16 12:03:00,
2013-02-16 07:05:00,27.5,24.4,29.88,NNW,330,0.0,0.0,88,0.00,CLR,BKN,0.00,WeatherDisplay:10.37,2013-02-16 12:05:00,
2013-02-16 07:15:00,28.0,25.2,29.88,NNW,330,0.0,0.0,89,0.00,CLR,BKN,0.00,WeatherDisplay:10.37,2013-02-16 12:15:00,
2013-02-16 07:20:00,28.2,25.4,29.88,NNW,330,0.0,0.0,89,0.00,CLR,BKN,0.00,WeatherDisplay:10.37,2013-02-16 12:20:00,
2013-02-16 07:25:00,28.4,25.6,29.88,NNW,330,0.0,0.0,89,0.00,CLR,BKN,0.00,WeatherDisplay:10.37,2013-02-16 12:25:00,
2013-02-16 07:35:00,29.1,26.3,29.88,NNW,330,0.0,0.0,89,0.00,CLR,BKN,0.00,WeatherDisplay:10.37,2013-02-16 12:35:00,
2013-02-16 07:40:00,29.3,26.2,29.88,NNW,330,0.0,0.0,88,0.00,CLR,BKN,0.00,WeatherDisplay:10.37,2013-02-16 12:40:00,
2013-02-16 07:50:00,29.7,26.3,29.88,NW,325,0.0,0.0,87,0.00,CLR,BKN,0.00,WeatherDisplay:10.37,2013-02-16 12:50:00,
2013-02-16 07:55:00,29.8,26.2,29.88,NW,325,0.0,0.0,86,0.00,CLR,BKN,0.00,WeatherDisplay:10.37,2013-02-16 12:55:00,
2013-02-16 08:05:00,29.7,26.0,29.88,NNW,330,0.0,0.0,86,0.00,CLR,BKN,0.00,WeatherDisplay:10.37,2013-02-16 13:05:00,
2013-02-16 08:10:00,29.7,26.0,29.88,NNW,330,0.0,0.0,86,0.00,CLR,BKN,0.00,WeatherDisplay:10.37,2013-02-16 13:10:00,
2013-02-16 08:20:00,29.7,26.0,29.88,NNW,330,0.0,0.0,86,0.00,CLR,BKN,0.00,WeatherDisplay:10.37,2013-02-16 13:20:00,
2013-02-16 08:25:00,29.7,26.0,29.88,NNW,330,0.0,0.0,86,0.00,CLR,BKN,0.00,WeatherDisplay:10.37,2013-02-16 13:25:00,
2013-02-16 08:35:00,31.1,26.8,29.88,WNW,288,0.0,3.0,84,0.00,CLR,BKN,0.00,WeatherDisplay:10.37,2013-02-16 13:35:00,
2013-02-16 08:40:00,31.1,26.8,29.88,WNW,285,0.0,1.0,84,0.00,CLR,BKN,0.00,WeatherDisplay:10.37,2013-02-16 13:40:00,
2013-02-16 08:50:00,32.0,26.8,29.88,WNW,286,1.0,3.0,81,0.00,CLR,BKN,0.00,WeatherDisplay:10.37,2013-02-16 13:50:00,
2013-02-16 09:00:00,32.4,27.2,29.88,NW,304,1.0,0.0,81,0.00,CLR,BKN,0.00,WeatherDisplay:10.37,2013-02-16 14:00:00,
2013-02-16 09:05:00,32.5,26.7,29.88,WNW,292,2.0,3.0,79,0.00,CLR,BKN,0.00,WeatherDisplay:10.37,2013-02-16 14:05:00,
2013-02-16 09:14:00,32.4,26.6,29.88,WNW,296,1.0,1.0,79,0.00,CLR,BKN,0.00,WeatherDisplay:10.37,2013-02-16 14:14:00,
2013-02-16 09:19:00,33.1,27.3,29.88,WNW,291,2.0,2.0,79,0.00,CLR,BKN,0.00,WeatherDisplay:10.37,2013-02-16 14:19:00,
2013-02-16 09:24:00,34.0,27.5,29.88,WNW,291,2.0,3.0,77,0.00,CLR,BKN,0.00,WeatherDisplay:10.37,2013-02-16 14:24:00,
2013-02-16 09:29:00,34.0,27.5,29.88,WNW,286,2.0,3.0,77,0.00,CLR,BKN,0.00,WeatherDisplay:10.37,2013-02-16 14:29:00,
2013-02-16 09:34:00,34.0,27.5,29.88,WNW,287,2.0,3.0,77,0.00,CLR,BKN,0.00,WeatherDisplay:10.37,2013-02-16 14:34:00,
2013-02-16 09:44:00,34.3,26.2,29.88,NW,304,2.0,6.0,72,0.00,CLR,BKN,0.00,WeatherDisplay:10.37,2013-02-16 14:44:00,
2013-02-16 09:54:00,34.3,25.6,29.88,WNW,296,3.0,5.0,70,0.00,CLR,BKN,0.00,WeatherDisplay:10.37,2013-02-16 14:54:00,
2013-02-16 09:59:00,34.5,26.4,29.88,WNW,293,5.0,5.0,72,0.00,CLR,BKN,0.00,WeatherDisplay:10.37,2013-02-16 14:59:00,
2013-02-16 10:04:00,34.5,25.7,29.88,WNW,283,3.0,5.0,70,0.00,CLR,BKN,0.00,WeatherDisplay:10.37,2013-02-16 15:04:00,
2013-02-16 10:09:00,34.5,25.7,29.88,WNW,282,5.0,8.0,70,0.00,CLR,BKN,0.01,WeatherDisplay:10.37,2013-02-16 15:09:00,
2013-02-16 10:19:00,35.6,24.6,29.88,WNW,299,5.0,5.0,64,0.01,CLR,BKN,0.01,WeatherDisplay:10.37,2013-02-16 15:19:00,
2013-02-16 10:24:00,35.6,25.0,29.88,WNW,298,5.0,5.0,65,0.03,RA,BKN,0.03,WeatherDisplay:10.37,2013-02-16 15:24:00,
2013-02-16 10:34:00,36.1,25.5,29.88,NW,304,3.0,5.0,65,0.03,CLR,BKN,0.03,WeatherDisplay:10.37,2013-02-16 15:34:00,
2013-02-16 10:39:00,36.9,25.8,29.88,WNW,303,3.0,6.0,64,0.03,CLR,BKN,0.03,WeatherDisplay:10.37,2013-02-16 15:39:00,
2013-02-16 10:44:00,37.4,25.6,29.88,WNW,294,5.0,6.0,62,0.03,CLR,BKN,0.03,WeatherDisplay:10.37,2013-02-16 15:44:00,
2013-02-16 10:49:00,37.0,24.8,29.88,WNW,302,5.0,7.0,61,0.04,RA,BKN,0.04,WeatherDisplay:10.37,2013-02-16 15:49:00,
2013-02-16 10:59:00,37.0,24.8,29.88,NNW,347,5.0,5.0,61,0.04,CLR,BKN,0.04,WeatherDisplay:10.37,2013-02-16 15:59:00,
2013-02-16 11:09:00,37.6,24.9,29.88,NW,321,3.0,10.0,60,0.04,CLR,BKN,0.04,WeatherDisplay:10.37,2013-02-16 16:09:00,
2013-02-16 11:14:00,37.6,24.9,29.88,NW,326,5.0,7.0,60,0.03,CLR,BKN,0.04,WeatherDisplay:10.37,2013-02-16 16:14:00,
2013-02-16 11:19:00,39.9,23.7,29.88,NNW,345,6.0,7.0,52,0.03,CLR,BKN,0.04,WeatherDisplay:10.37,2013-02-16 16:19:00,
2013-02-16 11:24:00,39.9,23.7,29.88,NNW,345,7.0,7.0,52,0.01,CLR,BKN,0.04,WeatherDisplay:10.37,2013-02-16 16:24:00,
2013-02-16 11:34:00,41.7,24.9,29.85,NNW,345,7.0,7.0,51,0.01,CLR,BKN,0.04,WeatherDisplay:10.37,2013-02-16 16:34:00,
2013-02-16 11:44:00,42.3,25.4,29.85,NNW,345,7.0,7.0,51,0.00,CLR,BKN,0.04,WeatherDisplay:10.37,2013-02-16 16:44:00,
2013-02-16 11:54:00,42.3,23.9,29.85,NNW,344,7.0,7.0,48,0.00,CLR,BKN,0.04,WeatherDisplay:10.37,2013-02-16 16:54:00,
2013-02-16 12:00:00,40.6,22.5,29.85,NNW,336,7.0,7.0,48,0.00,CLR,BKN,0.04,WeatherDisplay:10.37,2013-02-16 17:00:00,
2013-02-16 12:05:00,40.1,23.4,29.85,North,355,6.0,6.0,51,0.00,CLR,BKN,0.04,WeatherDisplay:10.37,2013-02-16 17:05:00,
2013-02-16 12:10:00,39.9,22.3,29.85,North,6,7.0,7.0,49,0.00,CLR,BKN,0.04,WeatherDisplay:10.37,2013-02-16 17:10:00,
2013-02-16 12:20:00,38.7,20.6,29.85,North,351,5.0,6.0,48,0.00,CLR,BKN,0.04,WeatherDisplay:10.37,2013-02-16 17:20:00,
2013-02-16 12:30:00,39.0,21.5,29.82,North,355,5.0,6.0,49,0.00,CLR,BKN,0.04,WeatherDisplay:10.37,2013-02-16 17:30:00,
2013-02-16 12:35:00,39.0,21.5,29.82,North,355,6.0,6.0,49,0.00,CLR,BKN,0.04,WeatherDisplay:10.37,2013-02-16 17:35:00,
2013-02-16 12:40:00,39.0,21.5,29.82,North,355,5.0,6.0,49,0.00,CLR,BKN,0.04,WeatherDisplay:10.37,2013-02-16 17:40:00,
2013-02-16 12:50:00,39.0,21.5,29.82,North,355,6.0,6.0,49,0.00,CLR,BKN,0.04,WeatherDisplay:10.37,2013-02-16 17:50:00,
2013-02-16 12:55:00,39.0,21.5,29.82,North,355,6.0,6.0,49,0.00,CLR,BKN,0.04,WeatherDisplay:10.37,2013-02-16 17:55:00,
2013-02-16 13:05:00,39.0,21.5,29.82,North,355,6.0,6.0,49,0.00,CLR,BKN,0.04,WeatherDisplay:10.37,2013-02-16 18:05:00,
2013-02-16 13:10:00,39.0,21.5,29.82,North,355,6.0,6.0,49,0.00,CLR,BKN,0.04,WeatherDisplay:10.37,2013-02-16 18:10:00,
2013-02-16 13:15:00,39.0,21.5,29.82,North,355,6.0,6.0,49,0.00,CLR,BKN,0.04,WeatherDisplay:10.37,2013-02-16 18:15:00,
2013-02-16 13:20:00,39.0,21.5,29.82,North,355,6.0,6.0,49,0.00,CLR,BKN,0.04,WeatherDisplay:10.37,2013-02-16 18:20:00,
2013-02-16 13:25:00,39.0,21.5,29.82,North,355,6.0,6.0,49,0.00,CLR,BKN,0.04,WeatherDisplay:10.37,2013-02-16 18:25:00,
2013-02-16 13:35:00,39.0,21.5,29.82,North,355,6.0,6.0,49,0.00,CLR,BKN,0.04,WeatherDisplay:10.37,2013-02-16 18:35:00,
2013-02-16 13:40:00,39.0,21.5,29.82,North,355,6.0,6.0,49,0.00,CLR,BKN,0.04,WeatherDisplay:10.37,2013-02-16 18:40:00,
2013-02-16 13:45:00,39.0,21.5,29.82,North,355,6.0,6.0,49,0.00,CLR,BKN,0.04,WeatherDisplay:10.37,2013-02-16 18:45:00,
2013-02-16 13:55:00,39.0,21.5,29.82,North,355,6.0,6.0,49,0.00,CLR,BKN,0.04,WeatherDisplay:10.37,2013-02-16 18:55:00,
2013-02-16 14:00:00,39.0,21.5,29.82,North,355,6.0,6.0,49,0.00,CLR,BKN,0.04,WeatherDisplay:10.37,2013-02-16 19:00:00,
2013-02-16 14:09:00,39.0,21.5,29.82,North,355,6.0,6.0,49,0.00,CLR,BKN,0.04,WeatherDisplay:10.37,2013-02-16 19:09:00,
2013-02-16 14:15:00,39.0,21.5,29.82,North,355,6.0,6.0,49,0.00,CLR,BKN,0.04,WeatherDisplay:10.37,2013-02-16 19:15:00,
2013-02-16 14:24:00,39.0,21.5,29.82,North,355,6.0,6.0,49,0.00,CLR,BKN,0.04,WeatherDisplay:10.37,2013-02-16 19:24:00,
2013-02-16 14:29:00,39.0,21.5,29.82,North,355,6.0,6.0,49,0.00,CLR,BKN,0.04,WeatherDisplay:10.37,2013-02-16 19:29:00,
2013-02-16 14:34:00,39.0,21.5,29.82,North,355,6.0,6.0,49,0.00,CLR,BKN,0.04,WeatherDisplay:10.37,2013-02-16 19:34:00,
2013-02-16 14:44:00,39.0,21.5,29.82,North,355,6.0,6.0,49,0.00,CLR,BKN,0.04,WeatherDisplay:10.37,2013-02-16 19:44:00,
2013-02-16 14:49:00,39.0,21.5,29.82,North,355,6.0,6.0,49,0.00,CLR,BKN,0.04,WeatherDisplay:10.37,2013-02-16 19:49:00,
2013-02-16 14:54:00,39.0,21.5,29.82,North,355,6.0,6.0,49,0.00,CLR,BKN,0.04,WeatherDisplay:10.37,2013-02-16 19:54:00,
2013-02-16 15:04:00,39.0,21.5,29.82,North,355,6.0,6.0,49,0.00,CLR,BKN,0.04,WeatherDisplay:10.37,2013-02-16 20:04:00,
2013-02-16 15:09:00,39.0,21.5,29.82,North,355,6.0,6.0,49,0.00,CLR,BKN,0.04,WeatherDisplay:10.37,2013-02-16 20:09:00,
2013-02-16 15:14:00,39.0,21.5,29.82,North,355,6.0,6.0,49,0.00,CLR,BKN,0.04,WeatherDisplay:10.37,2013-02-16 20:14:00,
2013-02-16 15:19:00,39.0,21.5,29.82,North,355,6.0,6.0,49,0.00,CLR,BKN,0.04,WeatherDisplay:10.37,2013-02-16 20:19:00,
2013-02-16 15:24:00,39.0,21.5,29.82,North,355,6.0,6.0,49,0.00,CLR,BKN,0.04,WeatherDisplay:10.37,2013-02-16 20:24:00,
2013-02-16 15:29:00,39.0,21.5,29.82,North,355,6.0,6.0,49,0.00,CLR,BKN,0.04,WeatherDisplay:10.37,2013-02-16 20:29:00,
2013-02-16 15:34:00,39.0,21.5,29.82,North,355,6.0,6.0,49,0.00,CLR,BKN,0.04,WeatherDisplay:10.37,2013-02-16 20:34:00,
2013-02-16 15:44:00,39.0,21.5,29.79,North,355,6.0,6.0,49,0.00,CLR,BKN,0.04,WeatherDisplay:10.37,2013-02-16 20:44:00,
2013-02-16 15:49:00,39.0,21.5,29.79,North,355,6.0,6.0,49,0.00,CLR,BKN,0.04,WeatherDisplay:10.37,2013-02-16 20:49:00,
2013-02-16 15:54:00,39.0,21.5,29.79,North,355,6.0,6.0,49,0.00,CLR,BKN,0.04,WeatherDisplay:10.37,2013-02-16 20:54:00,
2013-02-16 15:59:00,39.0,21.5,29.79,North,355,6.0,6.0,49,0.00,CLR,BKN,0.04,WeatherDisplay:10.37,2013-02-16 20:59:00,
2013-02-16 16:04:00,39.0,21.5,29.79,North,355,6.0,6.0,49,0.00,CLR,BKN,0.04,WeatherDisplay:10.37,2013-02-16 21:04:00,
2013-02-16 16:14:00,39.0,21.5,29.79,North,355,6.0,6.0,49,0.00,CLR,BKN,0.04,WeatherDisplay:10.37,2013-02-16 21:14:00,
2013-02-16 16:19:00,39.0,21.5,29.79,North,355,6.0,6.0,49,0.00,CLR,BKN,0.04,WeatherDisplay:10.37,2013-02-16 21:19:00,
2013-02-16 16:24:00,39.0,21.5,29.79,North,355,6.0,6.0,49,0.00,CLR,BKN,0.04,WeatherDisplay:10.37,2013-02-16 21:24:00,
2013-02-16 16:34:00,39.0,21.5,29.79,North,355,6.0,6.0,49,0.00,CLR,BKN,0.04,WeatherDisplay:10.37,2013-02-16 21:34:00,
2013-02-16 16:39:00,39.0,21.5,29.79,North,355,6.0,6.0,49,0.00,CLR,BKN,0.04,WeatherDisplay:10.37,2013-02-16 21:39:00,
2013-02-16 16:49:00,39.0,21.5,29.79,North,355,6.0,6.0,49,0.00,CLR,BKN,0.04,WeatherDisplay:10.37,2013-02-16 21:49:00,
2013-02-16 16:59:00,39.0,21.5,29.79,North,355,6.0,6.0,49,0.00,CLR,BKN,0.04,WeatherDisplay:10.37,2013-02-16 21:59:00,
2013-02-16 17:04:00,39.0,21.5,29.79,North,355,6.0,6.0,49,0.00,CLR,BKN,0.04,WeatherDisplay:10.37,2013-02-16 22:04:00,
2013-02-16 17:09:00,39.0,21.5,29.79,North,355,6.0,6.0,49,0.00,CLR,BKN,0.04,WeatherDisplay:10.37,2013-02-16 22:09:00,
2013-02-16 17:19:00,39.0,21.5,29.79,North,355,6.0,6.0,49,0.00,CLR,BKN,0.04,WeatherDisplay:10.37,2013-02-16 22:19:00,
2013-02-16 17:24:00,16.2,3.6,29.79,North,355,6.0,6.0,57,0.00,CLR,BKN,0.04,WeatherDisplay:10.37,2013-02-16 22:24:00,
2013-02-16 17:29:00,16.2,3.6,29.79,North,355,6.0,6.0,57,0.00,CLR,BKN,0.04,WeatherDisplay:10.37,2013-02-16 22:29:00,
2013-02-16 17:34:00,16.2,3.6,29.79,North,355,6.0,6.0,57,0.00,CLR,BKN,0.04,WeatherDisplay:10.37,2013-02-16 22:34:00,
2013-02-16 17:39:00,30.2,16.8,29.79,North,355,6.0,6.0,57,0.00,CLR,BKN,0.04,WeatherDisplay:10.37,2013-02-16 22:39:00,
2013-02-16 17:49:00,30.0,16.6,29.79,NW,321,5.0,6.0,57,0.00,CLR,BKN,0.04,WeatherDisplay:10.37,2013-02-16 22:49:00,
2013-02-16 17:54:00,30.0,16.6,29.79,NW,305,5.0,5.0,57,0.00,CLR,BKN,0.04,WeatherDisplay:10.37,2013-02-16 22:54:00,
2013-02-16 18:00:00,30.0,16.6,29.79,NW,305,5.0,5.0,57,0.00,CLR,BKN,0.04,WeatherDisplay:10.37,2013-02-16 23:00:00,
2013-02-16 18:05:00,29.5,16.9,29.79,NW,305,2.0,3.0,59,0.00,CLR,BKN,0.04,WeatherDisplay:10.37,2013-02-16 23:05:00,
2013-02-16 18:10:00,29.5,16.9,29.79,NW,305,2.0,3.0,59,0.00,CLR,BKN,0.04,WeatherDisplay:10.37,2013-02-16 23:10:00,
2013-02-16 18:20:00,29.5,16.9,29.79,NW,305,2.0,3.0,59,0.00,CLR,BKN,0.04,WeatherDisplay:10.37,2013-02-16 23:20:00,
2013-02-16 18:29:00,28.9,16.0,29.79,NW,305,2.0,3.0,58,0.00,CLR,BKN,0.04,WeatherDisplay:10.37,2013-02-16 23:29:00,
2013-02-16 18:35:00,28.9,16.8,29.79,NW,305,2.0,3.0,60,0.00,CLR,BKN,0.04,WeatherDisplay:10.37,2013-02-16 23:35:00,
2013-02-16 18:40:00,28.9,16.4,29.79,NW,305,2.0,3.0,59,0.00,CLR,BKN,0.04,WeatherDisplay:10.37,2013-02-16 23:40:00,
2013-02-16 18:45:00,28.8,16.2,29.79,NW,305,2.0,3.0,59,0.00,CLR,BKN,0.04,WeatherDisplay:10.37,2013-02-16 23:45:00,
2013-02-16 18:50:00,28.6,16.4,29.79,NW,305,2.0,3.0,60,0.00,CLR,BKN,0.04,WeatherDisplay:10.37,2013-02-16 23:50:00,
2013-02-16 18:55:00,28.6,16.1,29.79,NW,305,2.0,3.0,59,0.00,CLR,BKN,0.04,WeatherDisplay:10.37,2013-02-16 23:55:00,
2013-02-16 19:20:00,28.0,15.5,29.79,NW,305,2.0,3.0,59,0.00,CLR,BKN,0.04,WeatherDisplay:10.37,2013-02-17 00:20:00,
2013-02-16 19:30:00,28.0,15.5,29.79,NW,319,2.0,5.0,59,0.00,CLR,BKN,0.04,WeatherDisplay:10.37,2013-02-17 00:30:00,
2013-02-16 19:35:00,27.9,14.6,29.79,NNW,337,3.0,6.0,57,0.00,CLR,BKN,0.04,WeatherDisplay:10.37,2013-02-17 00:35:00,
2013-02-16 19:45:00,27.9,16.1,29.79,NW,320,3.0,6.0,61,0.00,CLR,BKN,0.04,WeatherDisplay:10.37,2013-02-17 00:45:00,
2013-02-16 19:55:00,27.7,14.8,29.79,NNW,340,3.0,4.0,58,0.00,CLR,BKN,0.04,WeatherDisplay:10.37,2013-02-17 00:55:00,
2013-02-16 20:00:00,27.5,15.0,29.79,NNW,344,5.0,6.0,59,0.00,CLR,BKN,0.04,WeatherDisplay:10.37,2013-02-17 01:00:00,
2013-02-16 20:05:00,27.5,15.4,29.79,NNW,330,5.0,6.0,60,0.00,CLR,BKN,0.04,WeatherDisplay:10.37,2013-02-17 01:05:00,
2013-02-16 20:10:00,27.5,15.4,29.79,NW,326,5.0,5.0,60,0.00,CLR,BKN,0.04,WeatherDisplay:10.37,2013-02-17 01:10:00,
2013-02-16 20:15:00,27.1,14.3,29.79,NNW,331,5.0,5.0,58,0.00,CLR,BKN,0.04,WeatherDisplay:10.37,2013-02-17 01:15:00,
2013-02-16 20:20:00,27.1,14.3,29.79,NNW,337,5.0,6.0,58,0.00,CLR,BKN,0.04,WeatherDisplay:10.37,2013-02-17 01:20:00,
2013-02-16 20:24:00,27.1,13.9,29.79,NNW,345,5.0,6.0,57,0.00,CLR,BKN,0.04,WeatherDisplay:10.37,2013-02-17 01:24:00,
2013-02-16 20:29:00,26.8,14.0,29.79,North,357,5.0,7.0,58,0.00,CLR,BKN,0.04,WeatherDisplay:10.37,2013-02-17 01:29:00,
2013-02-16 20:39:00,26.8,14.4,29.76,North,355,5.0,7.0,59,0.00,CLR,BKN,0.04,WeatherDisplay:10.37,2013-02-17 01:39:00,
2013-02-16 20:49:00,26.4,14.0,29.76,North,356,5.0,5.0,59,0.00,CLR,BKN,0.04,WeatherDisplay:10.37,2013-02-17 01:49:00,
2013-02-16 20:59:00,26.4,14.0,29.79,North,359,3.0,3.0,59,0.00,CLR,BKN,0.04,WeatherDisplay:10.37,2013-02-17 01:59:00,
2013-02-16 21:04:00,26.4,14.0,29.79,North,357,2.0,2.0,59,0.00,CLR,BKN,0.04,WeatherDisplay:10.37,2013-02-17 02:04:00,
2013-02-16 21:09:00,26.2,14.2,29.76,North,354,2.0,3.0,60,0.00,CLR,BKN,0.04,WeatherDisplay:10.37,2013-02-17 02:09:00,
2013-02-16 21:14:00,26.1,13.7,29.76,North,359,2.0,2.0,59,0.00,CLR,BKN,0.04,WeatherDisplay:10.37,2013-02-17 02:14:00,
2013-02-16 21:24:00,26.1,13.7,29.76,NNW,334,3.0,10.0,59,0.00,CLR,BKN,0.04,WeatherDisplay:10.37,2013-02-17 02:24:00,
2013-02-16 21:29:00,25.9,12.3,29.76,NNW,339,5.0,9.0,56,0.00,CLR,BKN,0.04,WeatherDisplay:10.37,2013-02-17 02:29:00,
2013-02-16 21:34:00,25.7,13.7,29.79,NW,324,6.0,9.0,60,0.00,CLR,BKN,0.04,WeatherDisplay:10.37,2013-02-17 02:34:00,
2013-02-16 21:39:00,25.7,12.9,29.79,NNW,329,6.0,10.0,58,0.00,CLR,BKN,0.04,WeatherDisplay:10.37,2013-02-17 02:39:00,
2013-02-16 21:49:00,25.3,12.2,29.76,NNW,334,7.0,7.0,57,0.00,CLR,BKN,0.04,WeatherDisplay:10.37,2013-02-17 02:49:00,
2013-02-16 21:54:00,25.3,12.6,29.76,NNW,328,6.0,6.0,58,0.00,CLR,BKN,0.04,WeatherDisplay:10.37,2013-02-17 02:54:00,
2013-02-16 21:59:00,25.3,13.4,29.76,NW,317,5.0,7.0,60,0.00,CLR,BKN,0.04,WeatherDisplay:10.37,2013-02-17 02:59:00,
2013-02-16 22:04:00,25.2,12.0,29.76,NW,311,5.0,7.0,57,0.00,CLR,BKN,0.04,WeatherDisplay:10.37,2013-02-17 03:04:00,
2013-02-16 22:09:00,25.2,12.0,29.76,NW,325,5.0,7.0,57,0.00,CLR,BKN,0.04,WeatherDisplay:10.37,2013-02-17 03:09:00,
2013-02-16 22:19:00,24.6,9.9,29.76,NW,321,7.0,9.0,53,0.00,CLR,BKN,0.04,WeatherDisplay:10.37,2013-02-17 03:19:00,
2013-02-16 22:29:00,24.6,10.7,29.73,NNW,327,7.0,8.0,55,0.00,CLR,BKN,0.04,WeatherDisplay:10.37,2013-02-17 03:29:00,
2013-02-16 22:34:00,24.4,9.7,29.73,NW,319,7.0,8.0,53,0.00,CLR,BKN,0.04,WeatherDisplay:10.37,2013-02-17 03:34:00,
2013-02-16 22:39:00,24.4,10.6,29.73,NW,321,7.0,8.0,55,0.00,CLR,BKN,0.04,WeatherDisplay:10.37,2013-02-17 03:39:00,
2013-02-16 22:44:00,23.9,7.5,29.73,NNW,328,7.0,7.0,49,0.00,CLR,BKN,0.04,WeatherDisplay:10.37,2013-02-17 03:44:00,
2013-02-16 22:54:00,23.9,7.9,29.73,NW,325,9.0,14.0,50,0.00,CLR,BKN,0.04,WeatherDisplay:10.37,2013-02-17 03:54:00,
2013-02-16 22:59:00,23.7,8.2,29.73,NW,317,8.0,8.0,51,0.00,CLR,BKN,0.04,WeatherDisplay:10.37,2013-02-17 03:59:00,
2013-02-16 23:04:00,23.5,8.0,29.73,NW,309,8.0,8.0,51,0.00,CLR,BKN,0.04,WeatherDisplay:10.37,2013-02-17 04:04:00,
2013-02-16 23:09:00,23.5,7.2,29.73,NW,306,8.0,8.0,49,0.00,CLR,BKN,0.04,WeatherDisplay:10.37,2013-02-17 04:09:00,
2013-02-16 23:14:00,23.4,8.3,29.70,NW,321,5.0,5.0,52,0.00,CLR,BKN,0.04,WeatherDisplay:10.37,2013-02-17 04:14:00,
2013-02-16 23:19:00,23.0,6.2,29.70,NNW,348,5.0,10.0,48,0.00,CLR,BKN,0.04,WeatherDisplay:10.37,2013-02-17 04:19:00,
2013-02-16 23:24:00,23.0,6.2,29.70,NNW,346,6.0,10.0,48,0.00,CLR,BKN,0.04,WeatherDisplay:10.37,2013-02-17 04:24:00,
2013-02-16 23:34:00,23.0,7.1,29.70,NW,306,6.0,6.0,50,0.00,CLR,BKN,0.04,WeatherDisplay:10.37,2013-02-17 04:34:00,
2013-02-16 23:39:00,23.0,8.4,29.70,WNW,295,6.0,6.0,53,0.00,CLR,BKN,0.04,WeatherDisplay:10.37,2013-02-17 04:39:00,
2013-02-16 23:44:00,22.8,6.0,29.70,WNW,303,5.0,5.0,48,0.00,CLR,BKN,0.04,WeatherDisplay:10.37,2013-02-17 04:44:00,
2013-02-16 23:49:00,22.5,4.8,29.70,NW,322,5.0,10.0,46,0.00,CLR,BKN,0.04,WeatherDisplay:10.37,2013-02-17 04:49:00,
2013-02-16 23:54:00,22.5,4.8,29.70,NW,321,5.0,10.0,46,0.00,CLR,BKN,0.04,WeatherDisplay:10.37,2013-02-17 04:54:00,